createdAt,value
2022-10-07T03:00:53.059Z,8.10
2022-10-07T03:03:23.171Z,8.10
2022-10-07T03:06:05.456Z,8.00
2022-10-07T03:08:34.802Z,7.90
2022-10-07T03:11:03.400Z,7.90
2022-10-07T03:13:32.282Z,8.00
2022-10-07T03:16:05.261Z,8.00
2022-10-07T03:18:34.439Z,7.80
2022-10-07T03:21:19.055Z,7.90
2022-10-07T03:23:53.145Z,7.90
2022-10-07T03:26:23.418Z,8.00
2022-10-07T03:28:51.807Z,8.00
2022-10-07T03:31:22.156Z,7.80
2022-10-07T03:33:52.436Z,7.80
2022-10-07T03:36:21.389Z,7.90
2022-10-07T03:38:49.538Z,8.00
2022-10-07T03:41:20.000Z,7.90
2022-10-07T03:43:51.275Z,8.00
2022-10-07T03:46:24.338Z,8.00
2022-10-07T03:48:53.279Z,8.10
2022-10-07T03:51:21.346Z,8.10
2022-10-07T03:53:49.743Z,8.10
2022-10-07T03:56:18.145Z,8.20
2022-10-07T03:58:46.068Z,8.30
2022-10-07T04:01:15.029Z,8.40
2022-10-07T04:03:55.777Z,8.10
2022-10-07T04:06:25.039Z,7.90
2022-10-07T04:08:53.897Z,7.80
2022-10-07T04:11:22.211Z,7.80
2022-10-07T04:13:52.866Z,7.80
2022-10-07T04:16:23.472Z,7.90
2022-10-07T04:18:57.108Z,7.90
2022-10-07T04:21:27.082Z,8.00
2022-10-07T04:23:54.962Z,7.90
2022-10-07T04:26:24.154Z,7.70
2022-10-07T04:28:52.562Z,7.60
2022-10-07T04:31:23.805Z,7.70
2022-10-07T04:33:59.598Z,7.70
2022-10-07T04:36:33.681Z,7.70
2022-10-07T04:39:14.363Z,7.60
2022-10-07T04:41:48.955Z,7.60
2022-10-07T04:44:21.914Z,7.60
2022-10-07T04:46:56.863Z,7.60
2022-10-07T04:49:28.694Z,7.70
2022-10-07T04:51:58.983Z,7.70
2022-10-07T04:54:31.887Z,7.60
2022-10-07T04:57:00.222Z,7.70
2022-10-07T04:59:30.731Z,7.60
2022-10-07T05:02:00.097Z,7.50
2022-10-07T05:04:33.034Z,7.50
2022-10-07T05:07:01.096Z,7.60
2022-10-07T05:09:30.516Z,7.60
2022-10-07T05:11:58.491Z,7.60
2022-10-07T05:14:26.472Z,7.70
2022-10-07T05:16:56.834Z,7.70
2022-10-07T05:19:28.773Z,7.60
2022-10-07T05:21:58.035Z,7.80
2022-10-07T05:24:27.031Z,7.70
2022-10-07T05:26:54.891Z,7.70
2022-10-07T05:29:24.023Z,7.70
2022-10-07T05:31:54.057Z,7.80
2022-10-07T05:34:25.207Z,7.90
2022-10-07T05:36:54.874Z,7.90
2022-10-07T05:39:24.979Z,7.80
2022-10-07T05:41:58.806Z,7.80
2022-10-07T05:44:32.352Z,7.80
2022-10-07T05:47:02.330Z,7.70
2022-10-07T05:49:30.699Z,7.60
2022-10-07T05:51:59.066Z,7.50
2022-10-07T05:54:28.334Z,7.50
2022-10-07T05:56:58.811Z,7.40
2022-10-07T05:59:27.020Z,7.30
2022-10-07T06:02:00.605Z,7.20
2022-10-07T06:04:29.789Z,7.10
2022-10-07T06:06:57.793Z,7.10
2022-10-07T06:09:43.392Z,7.10
2022-10-07T06:12:34.470Z,7.10
2022-10-07T06:15:07.472Z,7.00
2022-10-07T06:17:35.896Z,6.90
2022-10-07T06:20:08.037Z,7.00
2022-10-07T06:22:36.137Z,7.00
2022-10-07T06:25:04.457Z,7.00
2022-10-07T06:27:36.017Z,7.00
2022-10-07T06:30:05.712Z,7.10
2022-10-07T06:32:33.808Z,7.20
2022-10-07T06:35:02.364Z,7.20
2022-10-07T06:37:32.635Z,7.20
2022-10-07T06:40:01.038Z,7.20
2022-10-07T06:42:33.800Z,7.30
2022-10-07T06:45:20.180Z,7.40
2022-10-07T06:47:50.442Z,7.50
2022-10-07T06:50:18.405Z,7.60
2022-10-07T06:52:46.306Z,7.60
2022-10-07T06:55:14.766Z,7.70
2022-10-07T06:57:46.323Z,7.80
2022-10-07T07:00:18.003Z,7.80
2022-10-07T07:02:46.645Z,7.80
2022-10-07T07:05:16.426Z,7.80
2022-10-07T07:07:46.501Z,7.80
2022-10-07T07:10:14.983Z,7.90
2022-10-07T07:12:48.321Z,7.70
2022-10-07T07:15:16.498Z,7.70
2022-10-07T07:17:44.730Z,7.90
2022-10-07T07:20:14.337Z,8.00
2022-10-07T07:22:43.346Z,8.10
2022-10-07T07:25:11.784Z,8.20
2022-10-07T07:27:40.103Z,8.30
2022-10-07T07:30:13.263Z,8.10
2022-10-07T07:32:43.364Z,8.10
2022-10-07T07:35:11.558Z,8.00
2022-10-07T07:37:39.699Z,8.10
2022-10-07T07:40:09.363Z,8.30
2022-10-07T07:42:37.771Z,8.40
2022-10-07T07:45:08.206Z,8.50
2022-10-07T07:47:37.587Z,8.30
2022-10-07T07:50:07.625Z,8.40
2022-10-07T07:52:36.251Z,8.60
2022-10-07T07:55:07.180Z,8.70
2022-10-07T07:57:36.546Z,8.90
2022-10-07T08:00:08.472Z,9.00
2022-10-07T08:02:43.688Z,9.10
2022-10-07T08:05:21.370Z,9.30
2022-10-07T08:07:52.882Z,9.30
2022-10-07T08:10:21.660Z,9.40
2022-10-07T08:12:49.547Z,9.50
2022-10-07T08:15:17.662Z,9.60
2022-10-07T08:17:47.788Z,9.60
2022-10-07T08:20:16.409Z,9.50
2022-10-07T08:22:45.889Z,9.50
2022-10-07T08:25:16.774Z,9.40
2022-10-07T08:27:45.700Z,9.50
2022-10-07T08:30:14.547Z,9.60
2022-10-07T08:32:42.848Z,9.80
2022-10-07T08:35:12.160Z,9.90
2022-10-07T08:37:40.015Z,10.00
2022-10-07T08:40:08.850Z,10.10
2022-10-07T08:42:39.880Z,10.20
2022-10-07T08:45:13.118Z,10.30
2022-10-07T08:47:44.831Z,10.50
2022-10-07T08:50:20.012Z,10.40
2022-10-07T08:52:51.177Z,10.50
2022-10-07T08:55:26.874Z,10.60
2022-10-07T08:58:09.932Z,10.70
2022-10-07T09:00:46.111Z,10.80
2022-10-07T09:03:25.937Z,10.80
2022-10-07T09:05:57.052Z,11.00
2022-10-07T09:08:29.903Z,11.10
2022-10-07T09:11:15.426Z,11.30
2022-10-07T09:13:48.102Z,11.50
2022-10-07T09:16:22.990Z,11.70
2022-10-07T09:18:54.318Z,11.90
2022-10-07T09:21:28.620Z,12.10
2022-10-07T09:24:02.166Z,12.20
2022-10-07T09:26:30.913Z,12.30
2022-10-07T09:29:00.041Z,12.30
2022-10-07T09:31:27.965Z,12.40
2022-10-07T09:33:56.118Z,12.40
2022-10-07T09:36:26.134Z,12.50
2022-10-07T09:38:54.249Z,12.50
2022-10-07T09:41:31.282Z,12.60
2022-10-07T09:44:06.966Z,12.60
2022-10-07T09:46:48.008Z,12.70
2022-10-07T09:49:37.412Z,12.70
2022-10-07T09:52:15.827Z,12.80
2022-10-07T09:54:44.855Z,12.90
2022-10-07T09:57:30.222Z,13.00
2022-10-07T10:00:26.906Z,13.10
2022-10-07T10:03:04.063Z,13.20
2022-10-07T10:05:35.115Z,13.20
2022-10-07T10:08:07.290Z,13.40
2022-10-07T10:10:36.607Z,13.40
2022-10-07T10:13:06.691Z,13.50
2022-10-07T10:15:41.929Z,13.60
2022-10-07T10:18:28.094Z,13.70
2022-10-07T10:20:56.152Z,13.80
2022-10-07T10:23:29.744Z,13.80
2022-10-07T10:26:32.726Z,13.90
2022-10-07T10:29:11.788Z,14.00
2022-10-07T10:31:55.755Z,14.10
2022-10-07T10:34:38.447Z,14.10
2022-10-07T10:37:14.742Z,14.20
2022-10-07T10:40:03.060Z,14.30
2022-10-07T10:42:44.391Z,14.30
2022-10-07T10:45:35.037Z,14.40
2022-10-07T10:48:29.103Z,14.50
2022-10-07T10:51:10.169Z,14.50
2022-10-07T10:53:49.578Z,14.60
2022-10-07T10:56:36.155Z,14.80
2022-10-07T10:59:24.618Z,14.90
2022-10-07T11:02:01.437Z,15.00
2022-10-07T11:04:45.284Z,15.00
2022-10-07T11:07:21.230Z,15.20
2022-10-07T11:09:52.932Z,15.20
2022-10-07T11:12:26.559Z,15.30
2022-10-07T11:14:58.723Z,15.40
2022-10-07T11:17:35.814Z,15.40
2022-10-07T11:20:14.443Z,15.40
2022-10-07T11:22:47.731Z,15.50
2022-10-07T11:25:26.462Z,15.50
2022-10-07T11:28:00.358Z,15.50
2022-10-07T11:30:36.883Z,15.60
2022-10-07T11:33:12.833Z,15.60
2022-10-07T11:35:48.585Z,15.70
2022-10-07T11:38:20.136Z,15.70
2022-10-07T11:40:51.934Z,15.90
2022-10-07T11:43:28.349Z,16.00
2022-10-07T11:46:07.892Z,16.00
2022-10-07T11:48:44.002Z,16.10
2022-10-07T11:51:23.129Z,16.10
2022-10-07T11:53:55.417Z,16.10
2022-10-07T11:56:25.485Z,16.20
2022-10-07T11:59:03.786Z,16.30
2022-10-07T12:01:55.177Z,16.40
2022-10-07T12:04:35.250Z,16.40
2022-10-07T12:07:35.451Z,16.40
2022-10-07T12:10:31.242Z,16.40
2022-10-07T12:13:20.582Z,16.50
2022-10-07T12:15:50.864Z,16.60
2022-10-07T12:18:28.524Z,16.70
2022-10-07T12:21:09.411Z,16.70
2022-10-07T12:23:42.810Z,16.80
2022-10-07T12:26:53.466Z,16.70
2022-10-07T12:29:50.893Z,16.80
2022-10-07T12:33:00.803Z,16.90
2022-10-07T12:35:42.636Z,16.90
2022-10-07T12:38:19.784Z,17.00
2022-10-07T12:40:52.627Z,17.00
2022-10-07T12:43:31.128Z,16.90
2022-10-07T12:46:00.844Z,16.90
2022-10-07T12:48:34.611Z,17.00
2022-10-07T12:51:06.243Z,16.90
2022-10-07T12:53:42.027Z,16.90
2022-10-07T12:56:18.715Z,16.80
2022-10-07T12:59:35.993Z,16.90
2022-10-07T13:02:43.998Z,16.90
2022-10-07T13:06:12.587Z,16.90
2022-10-07T13:09:20.319Z,17.10
2022-10-07T13:12:27.494Z,17.20
2022-10-07T13:15:06.900Z,17.40
2022-10-07T13:17:47.300Z,17.40
2022-10-07T13:20:32.756Z,17.60
2022-10-07T13:23:07.868Z,17.70
2022-10-07T13:25:44.846Z,17.70
2022-10-07T13:28:16.441Z,17.70
2022-10-07T13:30:47.010Z,17.80
2022-10-07T13:33:30.344Z,17.80
2022-10-07T13:36:14.405Z,18.00
2022-10-07T13:38:42.333Z,18.10
2022-10-07T13:41:25.408Z,18.20
2022-10-07T13:43:56.028Z,18.30
2022-10-07T13:46:28.469Z,18.40
2022-10-07T13:48:57.856Z,18.40
2022-10-07T13:51:35.225Z,18.40
2022-10-07T13:54:05.342Z,18.30
2022-10-07T13:56:36.190Z,18.30
2022-10-07T13:59:06.772Z,18.40
2022-10-07T14:01:40.611Z,18.50
2022-10-07T14:04:22.311Z,18.80
2022-10-07T14:07:09.367Z,19.40
2022-10-07T14:09:46.623Z,20.70
2022-10-07T14:12:19.303Z,22.30
2022-10-07T14:14:49.585Z,23.30
2022-10-07T14:17:33.917Z,23.70
2022-10-07T14:20:05.456Z,23.30
2022-10-07T14:22:38.410Z,23.10
2022-10-07T14:25:17.293Z,23.70
2022-10-07T14:28:17.413Z,23.50
2022-10-07T14:31:04.689Z,22.70
2022-10-07T14:34:05.701Z,22.90
2022-10-07T14:36:36.034Z,22.20
2022-10-07T14:39:22.475Z,21.90
2022-10-07T14:41:54.977Z,22.00
2022-10-07T14:44:23.959Z,22.30
2022-10-07T14:47:03.779Z,22.50
2022-10-07T14:49:33.063Z,23.60
2022-10-07T14:52:02.298Z,23.70
2022-10-07T14:54:30.876Z,23.60
2022-10-07T14:56:58.748Z,24.10
2022-10-07T14:59:26.669Z,24.90
2022-10-07T15:01:54.587Z,25.40
2022-10-07T15:04:22.628Z,25.30
2022-10-07T15:06:52.036Z,24.50
2022-10-07T15:09:20.946Z,23.70
2022-10-07T15:11:48.963Z,22.70
2022-10-07T15:14:18.945Z,22.10
2022-10-07T15:16:46.861Z,21.40
2022-10-07T15:19:15.126Z,20.80
2022-10-07T15:21:43.079Z,20.20
2022-10-07T15:24:12.851Z,19.90
2022-10-07T15:26:41.320Z,19.60
2022-10-07T15:29:09.184Z,19.50
2022-10-07T15:31:37.988Z,19.30
2022-10-07T15:34:05.876Z,19.10
2022-10-07T15:36:33.766Z,18.90
2022-10-07T15:39:02.198Z,18.80
2022-10-07T15:41:33.875Z,18.60
2022-10-07T15:44:04.346Z,18.50
2022-10-07T15:46:32.481Z,18.40
2022-10-07T15:49:00.818Z,18.30
2022-10-07T15:51:29.439Z,18.10
2022-10-07T15:53:57.341Z,18.00
2022-10-07T15:56:26.295Z,17.90
2022-10-07T15:58:58.449Z,17.80
2022-10-07T16:01:26.495Z,17.70
2022-10-07T16:03:54.624Z,17.70
2022-10-07T16:06:23.915Z,17.60
2022-10-07T16:08:54.539Z,17.50
2022-10-07T16:11:23.188Z,17.40
2022-10-07T16:13:51.468Z,17.30
2022-10-07T16:16:22.682Z,17.20
2022-10-07T16:18:52.624Z,17.20
2022-10-07T16:21:22.780Z,17.10
2022-10-07T16:23:51.894Z,17.00
2022-10-07T16:26:22.422Z,17.00
2022-10-07T16:29:10.236Z,17.00
2022-10-07T16:31:41.504Z,16.90
2022-10-07T16:34:10.997Z,16.80
2022-10-07T16:36:44.713Z,16.70
2022-10-07T16:39:13.694Z,16.60
2022-10-07T16:41:41.831Z,16.50
2022-10-07T16:44:10.189Z,16.40
2022-10-07T16:46:39.777Z,16.30
2022-10-07T16:49:09.358Z,16.30
2022-10-07T16:51:38.627Z,16.20
2022-10-07T16:54:12.667Z,16.20
2022-10-07T16:56:42.220Z,16.10
2022-10-07T16:59:12.944Z,16.10
2022-10-07T17:01:42.254Z,16.10
2022-10-07T17:04:10.960Z,16.00
2022-10-07T17:06:39.017Z,16.00
2022-10-07T17:09:07.127Z,15.90
2022-10-07T17:11:36.536Z,15.90
2022-10-07T17:14:06.071Z,15.80
2022-10-07T17:16:36.424Z,15.70
2022-10-07T17:19:06.963Z,15.70
2022-10-07T17:21:36.022Z,15.60
2022-10-07T17:24:04.681Z,15.60
2022-10-07T17:26:33.367Z,15.50
2022-10-07T17:29:03.472Z,15.50
2022-10-07T17:31:32.239Z,15.40
2022-10-07T17:34:01.128Z,15.40
2022-10-07T17:36:31.043Z,15.40
2022-10-07T17:38:59.514Z,15.40
2022-10-07T17:41:28.721Z,15.30
2022-10-07T17:43:59.015Z,15.30
2022-10-07T17:46:28.900Z,15.20
2022-10-07T17:48:58.366Z,15.20
2022-10-07T17:51:28.967Z,15.20
2022-10-07T17:53:59.510Z,15.20
2022-10-07T17:56:29.156Z,15.10
2022-10-07T17:58:57.794Z,15.10
2022-10-07T18:01:27.745Z,15.10
2022-10-07T18:03:57.904Z,15.10
2022-10-07T18:06:26.630Z,15.10
2022-10-07T18:08:54.975Z,15.00
2022-10-07T18:11:44.628Z,15.00
2022-10-07T18:14:30.419Z,15.00
2022-10-07T18:16:58.572Z,14.90
2022-10-07T18:19:27.473Z,14.80
2022-10-07T18:21:56.477Z,14.80
2022-10-07T18:24:27.369Z,14.70
2022-10-07T18:26:58.566Z,14.70
2022-10-07T18:29:26.472Z,14.70
2022-10-07T18:31:54.467Z,14.60
2022-10-07T18:34:22.471Z,14.60
2022-10-07T18:36:55.259Z,14.60
2022-10-07T18:39:24.379Z,14.50
2022-10-07T18:41:52.745Z,14.40
2022-10-07T18:44:21.960Z,14.30
2022-10-07T18:46:50.033Z,14.20
2022-10-07T18:49:17.894Z,14.30
2022-10-07T18:51:47.126Z,14.10
2022-10-07T18:54:15.210Z,14.10
2022-10-07T18:56:43.095Z,14.10
2022-10-07T18:59:13.107Z,14.10
2022-10-07T19:01:44.359Z,14.20
2022-10-07T19:04:15.751Z,14.10
2022-10-07T19:06:45.878Z,14.10
2022-10-07T19:09:15.874Z,13.90
2022-10-07T19:11:44.291Z,13.90
2022-10-07T19:14:11.638Z,13.90
2022-10-07T19:16:42.708Z,13.80
2022-10-07T19:19:13.767Z,13.80
2022-10-07T19:21:41.816Z,13.70
2022-10-07T19:24:09.916Z,13.70
2022-10-07T19:26:43.230Z,13.80
2022-10-07T19:29:13.196Z,13.80
2022-10-07T19:31:44.766Z,13.80
2022-10-07T19:34:14.746Z,13.80
2022-10-07T19:36:46.858Z,13.90
2022-10-07T19:39:16.237Z,13.90
2022-10-07T19:41:44.467Z,13.90
2022-10-07T19:44:13.362Z,13.90
2022-10-07T19:46:42.782Z,13.80
2022-10-07T19:49:11.917Z,13.80
2022-10-07T19:51:41.787Z,13.80
2022-10-07T19:54:10.584Z,13.80
2022-10-07T19:56:39.792Z,13.70
2022-10-07T19:59:09.838Z,13.70
2022-10-07T20:01:41.340Z,13.70
2022-10-07T20:04:14.077Z,13.50
2022-10-07T20:06:42.698Z,13.50
2022-10-07T20:09:13.244Z,13.40
2022-10-07T20:11:41.411Z,13.30
2022-10-07T20:14:10.026Z,13.30
2022-10-07T20:16:39.421Z,13.20
2022-10-07T20:19:09.337Z,13.10
2022-10-07T20:21:40.222Z,13.10
2022-10-07T20:24:10.024Z,13.20
2022-10-07T20:26:39.264Z,13.10
2022-10-07T20:29:09.947Z,13.10
2022-10-07T20:31:40.077Z,13.10
2022-10-07T20:34:11.009Z,13.10
2022-10-07T20:36:41.271Z,13.10
2022-10-07T20:39:32.557Z,13.10
2022-10-07T20:42:17.966Z,13.00
2022-10-07T20:44:47.454Z,12.90
2022-10-07T20:47:15.460Z,12.90
2022-10-07T20:49:43.508Z,12.90
2022-10-07T20:52:17.129Z,12.90
2022-10-07T20:54:45.546Z,12.90
2022-10-07T20:57:15.778Z,12.80
2022-10-07T20:59:43.985Z,12.80
2022-10-07T21:02:13.467Z,12.90
2022-10-07T21:04:41.460Z,12.90
2022-10-07T21:07:10.338Z,12.90
2022-10-07T21:09:39.919Z,12.90
2022-10-07T21:12:13.493Z,12.80
2022-10-07T21:14:42.938Z,12.90
2022-10-07T21:17:11.310Z,12.90
2022-10-07T21:19:39.967Z,12.80
2022-10-07T21:22:08.368Z,12.60
2022-10-07T21:24:36.273Z,12.50
2022-10-07T21:27:07.531Z,12.50
2022-10-07T21:29:40.479Z,12.40
2022-10-07T21:32:09.241Z,12.40
2022-10-07T21:34:37.152Z,12.40
2022-10-07T21:37:05.058Z,12.50
2022-10-07T21:39:32.896Z,12.50
2022-10-07T21:42:01.742Z,12.50
2022-10-07T21:44:33.170Z,12.60
2022-10-07T21:47:01.101Z,12.50
2022-10-07T21:49:28.996Z,12.50
2022-10-07T21:51:56.816Z,12.60
2022-10-07T21:54:24.638Z,12.60
2022-10-07T21:56:52.459Z,12.60
2022-10-07T21:59:20.732Z,12.50
